ADDS TAF Board (Experimental) INFO

IDs: Format: Expanded Condensed

Updated at: 1219 UTC 29 Jan 2015

KMIA - Miami Intl, FL, US

Issued at 1120 UTC 29 Jan 2015
Time1153Z29/13Z29/14Z29/15Z29/16Z29/17Z29/18Z29/19Z29/20Z29/21Z29/22Z29/23Z30/00Z30/01Z
TypeOBSPRVLPRVLPRVLPRVLPRVLPRVLPRVLPRVLPRVLPRVLPRVLPRVLPRVL
VIS10>6>6>6>6>6>6>6>6>6>6>6>6>6
CIG50--------------------------
CoverBKNSCTSCTSCTSCTSCTSCTSCTSCTSCTSCTSCTSCTSCT
FltCat--VFRVFRVFRVFRVFRVFRVFRVFRVFRVFRVFRVFRVFR
WX----------------------------
WDir330340808080808080808080808080
WSpd33101010101010101010101010
WGst----------------------------
R08/26
XWnd33111111111111
HWnd-1-1101010101010101010101010
R09/27
XWnd33111111111111
HWnd-1-1101010101010101010101010
R12/30
XWnd22666666666666
HWnd-3-2888888888888
Raw TAF
KMIA 291120Z 2912/3012 34003KT P6SM SCT040
  FM291400 08010KT P6SM SCT045
  FM300700 35003KT P6SM FEW040


Raw METAR
KMIA 291153Z 33003KT 10SM BKN050 12/09 A3023 RMK AO2 SLP235 T01220094 10128 20117 53013

TAF Board Legend

Hazard VFR MVFR IFR LIFR
Visibility (sm) >5 3≤X≤5 1≤X<3 <1
Ceiling (100 ft) >30 10≤X≤30 5≤X<10 <5
Wind Speed (kt) <10 10≤X<20 20≤X<30 ≥30
Wind Gust (kt) <15 15≤X<25 25≤X<35 ≥35
Weather No Wx Reported VCTS,-TS,-FZRA TS,FZRA +TS,+FZRA


Page loaded:  12:19 UTC  |   04:19 AM Pacific  |   05:19 AM Mountain  |   06:19 AM Central  |   07:19 AM Eastern

 

ADVISORIES

FORECASTS

FORECASTS

OBSERVATIONS

USER TOOLS

ABOUT US